sensor_id;sensor_type;location;lat;lon;timestamp;P1;durP1;ratioP1;P2;durP2;ratioP2
43835;SDS011;39345;43.964;25.340;2022-11-15T00:01:46;19.55;;;11.88;;
43835;SDS011;39345;43.964;25.340;2022-11-15T00:04:32;21.83;;;13.05;;
43835;SDS011;39345;43.964;25.340;2022-11-15T00:07:18;22.20;;;12.25;;
43835;SDS011;39345;43.964;25.340;2022-11-15T00:10:24;22.15;;;12.35;;
43835;SDS011;39345;43.964;25.340;2022-11-15T00:13:11;20.63;;;11.43;;
43835;SDS011;39345;43.964;25.340;2022-11-15T00:15:58;20.70;;;11.60;;
43835;SDS011;39345;43.964;25.340;2022-11-15T00:18:44;20.33;;;12.07;;
43835;SDS011;39345;43.964;25.340;2022-11-15T00:21:35;19.85;;;12.30;;
43835;SDS011;39345;43.964;25.340;2022-11-15T00:24:20;20.77;;;11.60;;
43835;SDS011;39345;43.964;25.340;2022-11-15T00:27:06;22.85;;;11.32;;
43835;SDS011;39345;43.964;25.340;2022-11-15T00:29:53;21.75;;;11.48;;
43835;SDS011;39345;43.964;25.340;2022-11-15T00:32:39;19.35;;;11.40;;
43835;SDS011;39345;43.964;25.340;2022-11-15T00:35:25;18.52;;;11.30;;
43835;SDS011;39345;43.964;25.340;2022-11-15T00:38:11;19.30;;;10.32;;
43835;SDS011;39345;43.964;25.340;2022-11-15T00:40:57;18.25;;;10.95;;
43835;SDS011;39345;43.964;25.340;2022-11-15T00:43:48;16.83;;;10.23;;
43835;SDS011;39345;43.964;25.340;2022-11-15T00:46:35;20.13;;;10.70;;
43835;SDS011;39345;43.964;25.340;2022-11-15T00:49:21;19.15;;;10.23;;
43835;SDS011;39345;43.964;25.340;2022-11-15T00:52:06;20.27;;;11.70;;
43835;SDS011;39345;43.964;25.340;2022-11-15T00:54:53;19.23;;;10.60;;
43835;SDS011;39345;43.964;25.340;2022-11-15T00:57:39;18.88;;;10.50;;
43835;SDS011;39345;43.964;25.340;2022-11-15T01:00:25;19.10;;;10.68;;
43835;SDS011;39345;43.964;25.340;2022-11-15T01:03:11;19.17;;;10.90;;
43835;SDS011;39345;43.964;25.340;2022-11-15T01:05:58;19.00;;;10.82;;
43835;SDS011;39345;43.964;25.340;2022-11-15T01:08:44;21.52;;;11.93;;
43835;SDS011;39345;43.964;25.340;2022-11-15T01:11:30;18.45;;;10.90;;
43835;SDS011;39345;43.964;25.340;2022-11-15T01:14:16;18.85;;;11.25;;
43835;SDS011;39345;43.964;25.340;2022-11-15T01:17:09;20.85;;;11.43;;
43835;SDS011;39345;43.964;25.340;2022-11-15T01:19:55;20.65;;;11.23;;
43835;SDS011;39345;43.964;25.340;2022-11-15T01:22:41;17.70;;;10.40;;
43835;SDS011;39345;43.964;25.340;2022-11-15T01:25:27;18.45;;;10.73;;
43835;SDS011;39345;43.964;25.340;2022-11-15T01:28:13;16.95;;;10.70;;
43835;SDS011;39345;43.964;25.340;2022-11-15T01:31:00;21.13;;;10.65;;
43835;SDS011;39345;43.964;25.340;2022-11-15T01:33:46;20.30;;;11.00;;
43835;SDS011;39345;43.964;25.340;2022-11-15T01:36:33;19.95;;;10.52;;
43835;SDS011;39345;43.964;25.340;2022-11-15T01:39:19;18.88;;;10.80;;
43835;SDS011;39345;43.964;25.340;2022-11-15T01:42:05;17.70;;;10.88;;
43835;SDS011;39345;43.964;25.340;2022-11-15T01:44:51;20.63;;;10.52;;
43835;SDS011;39345;43.964;25.340;2022-11-15T01:47:40;18.92;;;11.23;;
43835;SDS011;39345;43.964;25.340;2022-11-15T01:50:29;17.08;;;10.55;;
43835;SDS011;39345;43.964;25.340;2022-11-15T01:53:17;19.42;;;10.68;;
43835;SDS011;39345;43.964;25.340;2022-11-15T01:56:05;18.13;;;10.43;;
43835;SDS011;39345;43.964;25.340;2022-11-15T01:58:51;21.40;;;10.68;;
43835;SDS011;39345;43.964;25.340;2022-11-15T02:01:38;16.70;;;9.57;;
43835;SDS011;39345;43.964;25.340;2022-11-15T02:04:28;15.15;;;9.52;;
43835;SDS011;39345;43.964;25.340;2022-11-15T02:07:16;18.80;;;10.30;;
43835;SDS011;39345;43.964;25.340;2022-11-15T02:10:10;16.35;;;10.05;;
43835;SDS011;39345;43.964;25.340;2022-11-15T02:12:56;18.55;;;10.43;;
43835;SDS011;39345;43.964;25.340;2022-11-15T02:15:52;20.23;;;10.82;;
43835;SDS011;39345;43.964;25.340;2022-11-15T02:19:23;20.65;;;11.57;;
43835;SDS011;39345;43.964;25.340;2022-11-15T02:30:57;17.98;;;10.25;;
43835;SDS011;39345;43.964;25.340;2022-11-15T02:36:40;20.52;;;11.25;;
43835;SDS011;39345;43.964;25.340;2022-11-15T02:39:33;18.95;;;10.65;;
43835;SDS011;39345;43.964;25.340;2022-11-15T02:42:23;20.33;;;10.52;;
43835;SDS011;39345;43.964;25.340;2022-11-15T02:45:30;18.60;;;10.77;;
43835;SDS011;39345;43.964;25.340;2022-11-15T02:48:18;20.27;;;10.82;;
43835;SDS011;39345;43.964;25.340;2022-11-15T02:51:04;19.98;;;11.10;;
43835;SDS011;39345;43.964;25.340;2022-11-15T02:53:51;18.15;;;11.00;;
43835;SDS011;39345;43.964;25.340;2022-11-15T02:56:37;21.55;;;10.50;;
43835;SDS011;39345;43.964;25.340;2022-11-15T03:02:16;16.98;;;9.88;;
43835;SDS011;39345;43.964;25.340;2022-11-15T03:08:10;21.33;;;11.40;;
43835;SDS011;39345;43.964;25.340;2022-11-15T03:11:11;20.45;;;11.23;;
43835;SDS011;39345;43.964;25.340;2022-11-15T03:13:59;19.02;;;10.98;;
43835;SDS011;39345;43.964;25.340;2022-11-15T03:16:51;22.27;;;11.25;;
43835;SDS011;39345;43.964;25.340;2022-11-15T03:19:43;18.98;;;10.57;;
43835;SDS011;39345;43.964;25.340;2022-11-15T03:22:30;21.38;;;11.15;;
43835;SDS011;39345;43.964;25.340;2022-11-15T03:25:22;18.08;;;11.00;;
43835;SDS011;39345;43.964;25.340;2022-11-15T03:28:10;19.60;;;11.13;;
43835;SDS011;39345;43.964;25.340;2022-11-15T03:30:57;19.80;;;11.25;;
43835;SDS011;39345;43.964;25.340;2022-11-15T03:33:44;19.33;;;11.05;;
43835;SDS011;39345;43.964;25.340;2022-11-15T03:36:30;19.48;;;11.15;;
43835;SDS011;39345;43.964;25.340;2022-11-15T03:39:19;20.80;;;11.23;;
43835;SDS011;39345;43.964;25.340;2022-11-15T03:45:22;24.50;;;12.05;;
43835;SDS011;39345;43.964;25.340;2022-11-15T03:48:29;21.70;;;11.52;;
43835;SDS011;39345;43.964;25.340;2022-11-15T03:51:16;18.15;;;10.43;;
43835;SDS011;39345;43.964;25.340;2022-11-15T03:54:03;17.02;;;10.48;;
43835;SDS011;39345;43.964;25.340;2022-11-15T03:56:49;21.02;;;10.60;;
43835;SDS011;39345;43.964;25.340;2022-11-15T03:59:35;19.73;;;10.32;;
43835;SDS011;39345;43.964;25.340;2022-11-15T04:02:21;18.90;;;10.40;;
43835;SDS011;39345;43.964;25.340;2022-11-15T04:05:07;18.40;;;10.52;;
43835;SDS011;39345;43.964;25.340;2022-11-15T04:07:53;20.50;;;11.05;;
43835;SDS011;39345;43.964;25.340;2022-11-15T04:10:39;19.58;;;11.07;;
43835;SDS011;39345;43.964;25.340;2022-11-15T04:13:25;23.00;;;11.73;;
43835;SDS011;39345;43.964;25.340;2022-11-15T04:16:11;23.88;;;11.75;;
43835;SDS011;39345;43.964;25.340;2022-11-15T04:18:57;21.27;;;11.13;;
43835;SDS011;39345;43.964;25.340;2022-11-15T04:22:02;20.38;;;11.52;;
43835;SDS011;39345;43.964;25.340;2022-11-15T04:25:06;21.17;;;11.10;;
43835;SDS011;39345;43.964;25.340;2022-11-15T04:27:52;19.10;;;10.48;;
43835;SDS011;39345;43.964;25.340;2022-11-15T04:30:38;21.73;;;11.20;;
43835;SDS011;39345;43.964;25.340;2022-11-15T04:33:25;21.38;;;11.43;;
43835;SDS011;39345;43.964;25.340;2022-11-15T04:36:11;20.70;;;11.65;;
43835;SDS011;39345;43.964;25.340;2022-11-15T04:39:15;22.92;;;11.48;;
43835;SDS011;39345;43.964;25.340;2022-11-15T04:42:01;20.10;;;11.05;;
43835;SDS011;39345;43.964;25.340;2022-11-15T04:44:47;21.38;;;11.50;;
43835;SDS011;39345;43.964;25.340;2022-11-15T04:47:34;23.75;;;11.50;;
43835;SDS011;39345;43.964;25.340;2022-11-15T04:50:20;21.38;;;11.55;;
43835;SDS011;39345;43.964;25.340;2022-11-15T04:53:06;23.17;;;11.68;;
43835;SDS011;39345;43.964;25.340;2022-11-15T04:55:52;22.30;;;11.85;;
43835;SDS011;39345;43.964;25.340;2022-11-15T04:58:38;21.23;;;11.60;;
43835;SDS011;39345;43.964;25.340;2022-11-15T05:01:23;20.52;;;11.60;;
43835;SDS011;39345;43.964;25.340;2022-11-15T05:04:09;20.67;;;12.02;;
43835;SDS011;39345;43.964;25.340;2022-11-15T05:07:04;20.05;;;11.25;;
43835;SDS011;39345;43.964;25.340;2022-11-15T05:09:51;21.00;;;11.77;;
43835;SDS011;39345;43.964;25.340;2022-11-15T05:12:37;22.38;;;12.52;;
43835;SDS011;39345;43.964;25.340;2022-11-15T05:18:09;25.50;;;12.88;;
43835;SDS011;39345;43.964;25.340;2022-11-15T05:20:55;22.15;;;12.25;;
43835;SDS011;39345;43.964;25.340;2022-11-15T05:23:41;23.55;;;12.40;;
43835;SDS011;39345;43.964;25.340;2022-11-15T05:26:27;23.15;;;11.82;;
43835;SDS011;39345;43.964;25.340;2022-11-15T05:29:14;22.10;;;12.13;;
43835;SDS011;39345;43.964;25.340;2022-11-15T05:32:00;21.13;;;12.60;;
43835;SDS011;39345;43.964;25.340;2022-11-15T05:34:46;26.98;;;13.20;;
43835;SDS011;39345;43.964;25.340;2022-11-15T05:37:32;25.10;;;12.75;;
43835;SDS011;39345;43.964;25.340;2022-11-15T05:40:18;22.58;;;12.15;;
43835;SDS011;39345;43.964;25.340;2022-11-15T05:45:49;25.65;;;12.82;;
43835;SDS011;39345;43.964;25.340;2022-11-15T05:48:36;22.42;;;12.25;;
43835;SDS011;39345;43.964;25.340;2022-11-15T05:51:23;23.65;;;13.07;;
43835;SDS011;39345;43.964;25.340;2022-11-15T05:54:10;25.35;;;12.38;;
43835;SDS011;39345;43.964;25.340;2022-11-15T05:56:56;22.00;;;12.20;;
43835;SDS011;39345;43.964;25.340;2022-11-15T05:59:42;24.15;;;12.50;;
43835;SDS011;39345;43.964;25.340;2022-11-15T06:02:28;25.05;;;12.20;;
43835;SDS011;39345;43.964;25.340;2022-11-15T06:05:14;23.83;;;13.40;;
43835;SDS011;39345;43.964;25.340;2022-11-15T06:08:00;23.42;;;13.02;;
43835;SDS011;39345;43.964;25.340;2022-11-15T06:10:46;35.88;;;17.60;;
43835;SDS011;39345;43.964;25.340;2022-11-15T06:13:33;32.58;;;16.48;;
43835;SDS011;39345;43.964;25.340;2022-11-15T06:16:19;31.33;;;17.13;;
43835;SDS011;39345;43.964;25.340;2022-11-15T06:19:06;28.85;;;14.95;;
43835;SDS011;39345;43.964;25.340;2022-11-15T06:21:52;27.25;;;13.77;;
43835;SDS011;39345;43.964;25.340;2022-11-15T06:24:39;24.42;;;13.10;;
43835;SDS011;39345;43.964;25.340;2022-11-15T06:27:25;25.08;;;12.43;;
43835;SDS011;39345;43.964;25.340;2022-11-15T06:30:11;26.77;;;13.77;;
43835;SDS011;39345;43.964;25.340;2022-11-15T06:33:04;28.17;;;13.05;;
43835;SDS011;39345;43.964;25.340;2022-11-15T06:35:50;26.45;;;14.13;;
43835;SDS011;39345;43.964;25.340;2022-11-15T06:38:36;29.20;;;15.57;;
43835;SDS011;39345;43.964;25.340;2022-11-15T06:41:22;29.05;;;15.30;;
43835;SDS011;39345;43.964;25.340;2022-11-15T06:44:08;26.50;;;13.73;;
43835;SDS011;39345;43.964;25.340;2022-11-15T06:46:54;28.52;;;14.27;;
43835;SDS011;39345;43.964;25.340;2022-11-15T06:49:40;31.23;;;16.25;;
43835;SDS011;39345;43.964;25.340;2022-11-15T06:52:26;25.30;;;13.10;;
43835;SDS011;39345;43.964;25.340;2022-11-15T06:55:17;21.77;;;11.90;;
43835;SDS011;39345;43.964;25.340;2022-11-15T06:58:03;25.58;;;12.73;;
43835;SDS011;39345;43.964;25.340;2022-11-15T07:00:49;22.00;;;12.70;;
43835;SDS011;39345;43.964;25.340;2022-11-15T07:03:36;32.65;;;16.85;;
43835;SDS011;39345;43.964;25.340;2022-11-15T07:06:21;41.85;;;21.25;;
43835;SDS011;39345;43.964;25.340;2022-11-15T07:09:07;28.90;;;15.35;;
43835;SDS011;39345;43.964;25.340;2022-11-15T07:11:53;27.58;;;12.65;;
43835;SDS011;39345;43.964;25.340;2022-11-15T07:14:39;21.75;;;12.05;;
43835;SDS011;39345;43.964;25.340;2022-11-15T07:17:25;22.38;;;12.02;;
43835;SDS011;39345;43.964;25.340;2022-11-15T07:20:12;25.40;;;12.90;;
43835;SDS011;39345;43.964;25.340;2022-11-15T07:23:02;21.40;;;11.88;;
43835;SDS011;39345;43.964;25.340;2022-11-15T07:25:48;22.83;;;12.45;;
43835;SDS011;39345;43.964;25.340;2022-11-15T07:28:34;28.33;;;13.43;;
43835;SDS011;39345;43.964;25.340;2022-11-15T07:31:21;26.83;;;13.82;;
43835;SDS011;39345;43.964;25.340;2022-11-15T07:34:07;28.42;;;14.07;;
43835;SDS011;39345;43.964;25.340;2022-11-15T07:36:55;29.02;;;13.40;;
43835;SDS011;39345;43.964;25.340;2022-11-15T07:39:41;28.10;;;14.55;;
43835;SDS011;39345;43.964;25.340;2022-11-15T07:42:27;27.55;;;14.15;;
43835;SDS011;39345;43.964;25.340;2022-11-15T07:45:31;31.15;;;14.95;;
43835;SDS011;39345;43.964;25.340;2022-11-15T07:48:21;32.47;;;14.52;;
43835;SDS011;39345;43.964;25.340;2022-11-15T07:51:09;30.17;;;14.75;;
43835;SDS011;39345;43.964;25.340;2022-11-15T07:53:58;26.88;;;13.52;;
43835;SDS011;39345;43.964;25.340;2022-11-15T07:56:43;29.77;;;14.35;;
43835;SDS011;39345;43.964;25.340;2022-11-15T07:59:29;28.77;;;14.15;;
43835;SDS011;39345;43.964;25.340;2022-11-15T08:02:16;27.55;;;14.07;;
43835;SDS011;39345;43.964;25.340;2022-11-15T08:05:03;30.08;;;14.38;;
43835;SDS011;39345;43.964;25.340;2022-11-15T08:07:48;25.67;;;13.75;;
43835;SDS011;39345;43.964;25.340;2022-11-15T08:10:36;26.58;;;13.23;;
43835;SDS011;39345;43.964;25.340;2022-11-15T08:13:24;25.45;;;13.27;;
43835;SDS011;39345;43.964;25.340;2022-11-15T08:16:10;27.77;;;13.88;;
43835;SDS011;39345;43.964;25.340;2022-11-15T08:18:56;27.95;;;14.38;;
43835;SDS011;39345;43.964;25.340;2022-11-15T08:21:43;27.00;;;13.93;;
43835;SDS011;39345;43.964;25.340;2022-11-15T08:24:28;22.80;;;12.20;;
43835;SDS011;39345;43.964;25.340;2022-11-15T08:27:14;24.17;;;12.75;;
43835;SDS011;39345;43.964;25.340;2022-11-15T08:30:00;23.65;;;11.63;;
43835;SDS011;39345;43.964;25.340;2022-11-15T08:32:47;24.75;;;11.80;;
43835;SDS011;39345;43.964;25.340;2022-11-15T08:35:33;20.75;;;11.35;;
43835;SDS011;39345;43.964;25.340;2022-11-15T08:38:19;25.00;;;11.85;;
43835;SDS011;39345;43.964;25.340;2022-11-15T08:41:05;21.08;;;11.77;;
43835;SDS011;39345;43.964;25.340;2022-11-15T08:43:51;23.25;;;11.82;;
43835;SDS011;39345;43.964;25.340;2022-11-15T08:46:37;28.23;;;15.23;;
43835;SDS011;39345;43.964;25.340;2022-11-15T08:49:23;28.98;;;14.20;;
43835;SDS011;39345;43.964;25.340;2022-11-15T08:52:09;26.13;;;13.73;;
43835;SDS011;39345;43.964;25.340;2022-11-15T08:54:55;24.23;;;11.70;;
43835;SDS011;39345;43.964;25.340;2022-11-15T08:57:41;19.40;;;10.68;;
43835;SDS011;39345;43.964;25.340;2022-11-15T09:00:27;23.77;;;12.73;;
43835;SDS011;39345;43.964;25.340;2022-11-15T09:03:13;23.42;;;12.27;;
43835;SDS011;39345;43.964;25.340;2022-11-15T09:06:00;20.77;;;11.98;;
43835;SDS011;39345;43.964;25.340;2022-11-15T09:08:46;23.90;;;11.23;;
43835;SDS011;39345;43.964;25.340;2022-11-15T09:11:33;22.70;;;11.65;;
43835;SDS011;39345;43.964;25.340;2022-11-15T09:14:19;23.77;;;12.27;;
43835;SDS011;39345;43.964;25.340;2022-11-15T09:17:08;20.63;;;11.52;;
43835;SDS011;39345;43.964;25.340;2022-11-15T09:19:54;21.60;;;11.82;;
43835;SDS011;39345;43.964;25.340;2022-11-15T09:22:40;24.85;;;13.18;;
43835;SDS011;39345;43.964;25.340;2022-11-15T09:25:26;26.55;;;12.70;;
43835;SDS011;39345;43.964;25.340;2022-11-15T09:28:13;22.63;;;12.30;;
43835;SDS011;39345;43.964;25.340;2022-11-15T09:31:03;23.88;;;13.57;;
43835;SDS011;39345;43.964;25.340;2022-11-15T09:33:49;23.65;;;12.73;;
43835;SDS011;39345;43.964;25.340;2022-11-15T09:36:35;23.02;;;12.90;;
43835;SDS011;39345;43.964;25.340;2022-11-15T09:39:21;20.38;;;11.55;;
43835;SDS011;39345;43.964;25.340;2022-11-15T09:42:12;23.27;;;11.55;;
43835;SDS011;39345;43.964;25.340;2022-11-15T09:48:03;24.15;;;12.80;;
43835;SDS011;39345;43.964;25.340;2022-11-15T09:50:58;22.45;;;12.70;;
43835;SDS011;39345;43.964;25.340;2022-11-15T09:56:26;23.63;;;13.05;;
43835;SDS011;39345;43.964;25.340;2022-11-15T10:04:14;23.80;;;13.43;;
43835;SDS011;39345;43.964;25.340;2022-11-15T10:06:46;23.63;;;13.38;;
43835;SDS011;39345;43.964;25.340;2022-11-15T10:09:18;22.67;;;11.73;;
43835;SDS011;39345;43.964;25.340;2022-11-15T10:11:49;21.33;;;11.50;;
43835;SDS011;39345;43.964;25.340;2022-11-15T10:14:18;23.02;;;11.90;;
43835;SDS011;39345;43.964;25.340;2022-11-15T10:24:45;23.73;;;13.10;;
43835;SDS011;39345;43.964;25.340;2022-11-15T10:27:17;23.17;;;12.55;;
43835;SDS011;39345;43.964;25.340;2022-11-15T10:32:12;26.02;;;14.50;;
43835;SDS011;39345;43.964;25.340;2022-11-15T10:34:40;25.23;;;13.18;;
43835;SDS011;39345;43.964;25.340;2022-11-15T10:37:08;28.95;;;14.70;;
43835;SDS011;39345;43.964;25.340;2022-11-15T10:39:35;23.80;;;13.13;;
43835;SDS011;39345;43.964;25.340;2022-11-15T10:42:25;20.55;;;11.80;;
43835;SDS011;39345;43.964;25.340;2022-11-15T10:44:53;21.25;;;11.80;;
43835;SDS011;39345;43.964;25.340;2022-11-15T10:50:01;23.90;;;12.70;;
43835;SDS011;39345;43.964;25.340;2022-11-15T10:52:28;23.25;;;12.23;;
43835;SDS011;39345;43.964;25.340;2022-11-15T10:55:01;22.08;;;11.88;;
43835;SDS011;39345;43.964;25.340;2022-11-15T10:57:30;26.38;;;12.95;;
43835;SDS011;39345;43.964;25.340;2022-11-15T11:00:06;21.60;;;11.80;;
43835;SDS011;39345;43.964;25.340;2022-11-15T11:02:39;25.60;;;12.80;;
43835;SDS011;39345;43.964;25.340;2022-11-15T11:07:56;23.95;;;13.23;;
43835;SDS011;39345;43.964;25.340;2022-11-15T11:10:24;24.15;;;13.27;;
43835;SDS011;39345;43.964;25.340;2022-11-15T11:13:21;22.95;;;13.35;;
43835;SDS011;39345;43.964;25.340;2022-11-15T11:21:08;26.63;;;14.00;;
43835;SDS011;39345;43.964;25.340;2022-11-15T11:42:25;27.50;;;15.20;;
43835;SDS011;39345;43.964;25.340;2022-11-15T11:44:58;28.92;;;15.35;;
43835;SDS011;39345;43.964;25.340;2022-11-15T11:47:31;27.40;;;14.55;;
43835;SDS011;39345;43.964;25.340;2022-11-15T11:50:14;23.58;;;13.23;;
43835;SDS011;39345;43.964;25.340;2022-11-15T11:57:48;25.80;;;12.80;;
43835;SDS011;39345;43.964;25.340;2022-11-15T12:00:24;24.23;;;12.75;;
43835;SDS011;39345;43.964;25.340;2022-11-15T12:03:01;27.38;;;14.02;;
43835;SDS011;39345;43.964;25.340;2022-11-15T12:13:33;28.35;;;14.23;;
43835;SDS011;39345;43.964;25.340;2022-11-15T12:16:08;26.55;;;13.70;;
43835;SDS011;39345;43.964;25.340;2022-11-15T12:18:38;29.77;;;15.20;;
43835;SDS011;39345;43.964;25.340;2022-11-15T12:21:08;25.45;;;13.90;;
43835;SDS011;39345;43.964;25.340;2022-11-15T12:23:45;27.42;;;14.10;;
43835;SDS011;39345;43.964;25.340;2022-11-15T12:26:17;25.92;;;13.50;;
43835;SDS011;39345;43.964;25.340;2022-11-15T12:28:48;25.80;;;13.45;;
43835;SDS011;39345;43.964;25.340;2022-11-15T12:31:43;28.63;;;14.43;;
43835;SDS011;39345;43.964;25.340;2022-11-15T12:36:49;29.00;;;14.13;;
43835;SDS011;39345;43.964;25.340;2022-11-15T12:39:17;28.20;;;13.77;;
43835;SDS011;39345;43.964;25.340;2022-11-15T12:59:47;26.10;;;14.27;;
43835;SDS011;39345;43.964;25.340;2022-11-15T13:02:21;29.73;;;14.07;;
43835;SDS011;39345;43.964;25.340;2022-11-15T13:04:50;29.27;;;14.13;;
43835;SDS011;39345;43.964;25.340;2022-11-15T13:17:44;30.25;;;16.75;;
43835;SDS011;39345;43.964;25.340;2022-11-15T13:22:44;37.88;;;18.73;;
43835;SDS011;39345;43.964;25.340;2022-11-15T13:27:47;33.95;;;15.23;;
43835;SDS011;39345;43.964;25.340;2022-11-15T13:30:25;28.20;;;14.95;;
43835;SDS011;39345;43.964;25.340;2022-11-15T13:32:53;34.03;;;16.20;;
43835;SDS011;39345;43.964;25.340;2022-11-15T13:35:22;30.17;;;15.23;;
43835;SDS011;39345;43.964;25.340;2022-11-15T13:37:50;33.53;;;16.25;;
43835;SDS011;39345;43.964;25.340;2022-11-15T13:42:48;30.50;;;16.30;;
43835;SDS011;39345;43.964;25.340;2022-11-15T13:45:16;33.13;;;17.10;;
43835;SDS011;39345;43.964;25.340;2022-11-15T13:47:44;33.40;;;17.02;;
43835;SDS011;39345;43.964;25.340;2022-11-15T13:50:12;34.05;;;17.02;;
43835;SDS011;39345;43.964;25.340;2022-11-15T13:52:40;28.88;;;15.00;;
43835;SDS011;39345;43.964;25.340;2022-11-15T13:57:44;29.77;;;15.15;;
43835;SDS011;39345;43.964;25.340;2022-11-15T14:05:25;31.00;;;15.57;;
43835;SDS011;39345;43.964;25.340;2022-11-15T14:07:56;31.42;;;16.52;;
43835;SDS011;39345;43.964;25.340;2022-11-15T14:10:34;34.75;;;16.42;;
43835;SDS011;39345;43.964;25.340;2022-11-15T14:13:03;31.58;;;16.10;;
43835;SDS011;39345;43.964;25.340;2022-11-15T14:15:31;31.58;;;16.27;;
43835;SDS011;39345;43.964;25.340;2022-11-15T14:17:59;30.95;;;15.93;;
43835;SDS011;39345;43.964;25.340;2022-11-15T14:20:35;31.70;;;16.92;;
43835;SDS011;39345;43.964;25.340;2022-11-15T14:25:32;38.90;;;21.38;;
43835;SDS011;39345;43.964;25.340;2022-11-15T14:28:14;35.22;;;16.63;;
43835;SDS011;39345;43.964;25.340;2022-11-15T14:30:43;43.08;;;21.00;;
43835;SDS011;39345;43.964;25.340;2022-11-15T14:33:28;42.03;;;22.58;;
43835;SDS011;39345;43.964;25.340;2022-11-15T14:35:58;43.45;;;24.13;;
43835;SDS011;39345;43.964;25.340;2022-11-15T14:38:26;41.45;;;24.40;;
43835;SDS011;39345;43.964;25.340;2022-11-15T14:40:54;50.13;;;27.52;;
43835;SDS011;39345;43.964;25.340;2022-11-15T14:43:23;44.42;;;24.80;;
43835;SDS011;39345;43.964;25.340;2022-11-15T14:45:50;51.22;;;26.02;;
43835;SDS011;39345;43.964;25.340;2022-11-15T14:48:17;52.47;;;25.90;;
43835;SDS011;39345;43.964;25.340;2022-11-15T14:50:45;40.05;;;21.05;;
43835;SDS011;39345;43.964;25.340;2022-11-15T14:53:16;40.58;;;20.05;;
43835;SDS011;39345;43.964;25.340;2022-11-15T14:55:44;39.65;;;18.65;;
43835;SDS011;39345;43.964;25.340;2022-11-15T14:58:11;37.78;;;18.63;;
43835;SDS011;39345;43.964;25.340;2022-11-15T15:00:39;40.67;;;19.20;;
43835;SDS011;39345;43.964;25.340;2022-11-15T15:03:07;39.60;;;18.90;;
43835;SDS011;39345;43.964;25.340;2022-11-15T15:05:41;37.08;;;18.98;;
43835;SDS011;39345;43.964;25.340;2022-11-15T15:08:09;37.28;;;19.08;;
43835;SDS011;39345;43.964;25.340;2022-11-15T15:10:41;38.92;;;18.50;;
43835;SDS011;39345;43.964;25.340;2022-11-15T15:13:14;43.63;;;18.77;;
43835;SDS011;39345;43.964;25.340;2022-11-15T15:15:43;42.15;;;20.52;;
43835;SDS011;39345;43.964;25.340;2022-11-15T15:18:10;41.17;;;19.77;;
43835;SDS011;39345;43.964;25.340;2022-11-15T15:20:38;40.88;;;20.77;;
43835;SDS011;39345;43.964;25.340;2022-11-15T15:23:24;38.05;;;19.90;;
43835;SDS011;39345;43.964;25.340;2022-11-15T15:25:55;43.83;;;20.90;;
43835;SDS011;39345;43.964;25.340;2022-11-15T15:28:23;39.45;;;20.63;;
43835;SDS011;39345;43.964;25.340;2022-11-15T15:30:56;43.42;;;21.42;;
43835;SDS011;39345;43.964;25.340;2022-11-15T15:33:24;45.63;;;20.70;;
43835;SDS011;39345;43.964;25.340;2022-11-15T15:35:51;37.92;;;20.42;;
43835;SDS011;39345;43.964;25.340;2022-11-15T15:38:19;44.80;;;21.92;;
43835;SDS011;39345;43.964;25.340;2022-11-15T15:40:47;45.70;;;21.33;;
43835;SDS011;39345;43.964;25.340;2022-11-15T15:43:17;39.83;;;20.45;;
43835;SDS011;39345;43.964;25.340;2022-11-15T15:45:44;44.28;;;21.40;;
43835;SDS011;39345;43.964;25.340;2022-11-15T15:48:12;42.78;;;21.08;;
43835;SDS011;39345;43.964;25.340;2022-11-15T15:50:40;37.20;;;19.40;;
43835;SDS011;39345;43.964;25.340;2022-11-15T15:53:09;44.97;;;20.33;;
43835;SDS011;39345;43.964;25.340;2022-11-15T15:55:37;42.33;;;23.00;;
43835;SDS011;39345;43.964;25.340;2022-11-15T15:58:04;42.75;;;23.05;;
43835;SDS011;39345;43.964;25.340;2022-11-15T16:00:33;41.78;;;20.75;;
43835;SDS011;39345;43.964;25.340;2022-11-15T16:03:00;46.92;;;21.70;;
43835;SDS011;39345;43.964;25.340;2022-11-15T16:05:27;44.55;;;22.75;;
43835;SDS011;39345;43.964;25.340;2022-11-15T16:07:55;49.33;;;24.30;;
43835;SDS011;39345;43.964;25.340;2022-11-15T16:10:29;48.35;;;23.63;;
43835;SDS011;39345;43.964;25.340;2022-11-15T16:15:26;49.30;;;23.92;;
43835;SDS011;39345;43.964;25.340;2022-11-15T16:17:54;40.10;;;21.80;;
43835;SDS011;39345;43.964;25.340;2022-11-15T16:23:06;41.53;;;21.67;;
43835;SDS011;39345;43.964;25.340;2022-11-15T16:25:45;45.63;;;22.45;;
43835;SDS011;39345;43.964;25.340;2022-11-15T16:28:17;38.70;;;20.83;;
43835;SDS011;39345;43.964;25.340;2022-11-15T16:30:45;38.05;;;19.25;;
43835;SDS011;39345;43.964;25.340;2022-11-15T16:33:19;39.92;;;19.25;;
43835;SDS011;39345;43.964;25.340;2022-11-15T16:35:46;36.60;;;18.75;;
43835;SDS011;39345;43.964;25.340;2022-11-15T16:38:14;53.83;;;26.45;;
43835;SDS011;39345;43.964;25.340;2022-11-15T16:40:42;67.32;;;32.30;;
43835;SDS011;39345;43.964;25.340;2022-11-15T16:43:09;42.65;;;22.33;;
43835;SDS011;39345;43.964;25.340;2022-11-15T16:45:37;37.72;;;19.13;;
43835;SDS011;39345;43.964;25.340;2022-11-15T16:48:04;36.60;;;18.20;;
43835;SDS011;39345;43.964;25.340;2022-11-15T16:50:33;35.90;;;18.77;;
43835;SDS011;39345;43.964;25.340;2022-11-15T16:53:06;32.73;;;17.37;;
43835;SDS011;39345;43.964;25.340;2022-11-15T16:55:34;37.00;;;18.65;;
43835;SDS011;39345;43.964;25.340;2022-11-15T16:58:02;38.28;;;19.48;;
43835;SDS011;39345;43.964;25.340;2022-11-15T17:00:29;38.33;;;17.70;;
43835;SDS011;39345;43.964;25.340;2022-11-15T17:02:57;37.47;;;18.50;;
43835;SDS011;39345;43.964;25.340;2022-11-15T17:05:24;35.25;;;18.33;;
43835;SDS011;39345;43.964;25.340;2022-11-15T17:07:53;38.33;;;19.05;;
43835;SDS011;39345;43.964;25.340;2022-11-15T17:10:21;38.85;;;20.13;;
43835;SDS011;39345;43.964;25.340;2022-11-15T17:12:49;37.22;;;18.85;;
43835;SDS011;39345;43.964;25.340;2022-11-15T17:15:16;36.35;;;18.67;;
43835;SDS011;39345;43.964;25.340;2022-11-15T17:17:44;35.55;;;19.13;;
43835;SDS011;39345;43.964;25.340;2022-11-15T17:20:17;34.58;;;18.40;;
43835;SDS011;39345;43.964;25.340;2022-11-15T17:22:45;37.20;;;20.08;;
43835;SDS011;39345;43.964;25.340;2022-11-15T17:25:13;38.63;;;20.40;;
43835;SDS011;39345;43.964;25.340;2022-11-15T17:27:40;36.97;;;19.80;;
43835;SDS011;39345;43.964;25.340;2022-11-15T17:30:08;39.70;;;20.23;;
43835;SDS011;39345;43.964;25.340;2022-11-15T17:32:37;50.53;;;24.88;;
43835;SDS011;39345;43.964;25.340;2022-11-15T17:35:05;66.32;;;33.03;;
43835;SDS011;39345;43.964;25.340;2022-11-15T17:37:40;45.95;;;23.30;;
43835;SDS011;39345;43.964;25.340;2022-11-15T17:40:07;57.38;;;27.73;;
43835;SDS011;39345;43.964;25.340;2022-11-15T17:42:35;39.25;;;20.85;;
43835;SDS011;39345;43.964;25.340;2022-11-15T17:45:03;36.08;;;19.55;;
43835;SDS011;39345;43.964;25.340;2022-11-15T17:47:35;40.95;;;19.73;;
43835;SDS011;39345;43.964;25.340;2022-11-15T17:50:03;36.15;;;18.70;;